createdAt,value
2019-06-01T00:00:19.744Z,99.90
2019-06-01T00:02:52.573Z,99.90
2019-06-01T00:05:16.442Z,99.90
2019-06-01T00:07:43.052Z,99.90
2019-06-01T00:10:09.829Z,99.90
2019-06-01T00:12:36.385Z,99.90
2019-06-01T00:15:06.300Z,99.90
2019-06-01T00:17:33.035Z,99.90
2019-06-01T00:19:59.680Z,99.90
2019-06-01T00:22:26.241Z,99.90
2019-06-01T00:24:52.813Z,99.90
2019-06-01T00:27:19.498Z,99.90
2019-06-01T00:29:46.790Z,99.90
2019-06-01T00:32:13.762Z,99.90
2019-06-01T00:34:41.265Z,99.90
2019-06-01T00:37:08.085Z,99.90
2019-06-01T00:39:34.721Z,99.90
2019-06-01T00:42:01.397Z,99.90
2019-06-01T00:44:28.081Z,99.90
2019-06-01T00:46:54.631Z,99.90
2019-06-01T00:49:21.160Z,99.90
2019-06-01T00:51:49.004Z,99.90
2019-06-01T00:54:15.705Z,99.90
2019-06-01T00:56:43.470Z,99.90
2019-06-01T00:59:10.128Z,99.90
2019-06-01T01:01:36.657Z,99.90
2019-06-01T01:04:03.352Z,99.90
2019-06-01T01:06:29.986Z,99.90
2019-06-01T01:08:56.764Z,99.90
2019-06-01T01:11:23.444Z,99.90
2019-06-01T01:13:51.327Z,99.90
2019-06-01T01:16:17.950Z,99.90
2019-06-01T01:18:45.595Z,99.90
2019-06-01T01:21:12.357Z,99.90
2019-06-01T01:23:38.924Z,99.90
2019-06-01T01:26:05.505Z,99.90
2019-06-01T01:28:32.054Z,99.90
2019-06-01T01:31:11.773Z,99.90
2019-06-01T01:33:26.940Z,99.90
2019-06-01T01:35:54.196Z,99.90
2019-06-01T01:38:20.962Z,99.90
2019-06-01T01:40:47.956Z,99.90
2019-06-01T01:43:14.675Z,99.90
2019-06-01T01:45:41.540Z,99.90
2019-06-01T01:48:08.085Z,99.90
2019-06-01T01:50:34.734Z,99.90
2019-06-01T01:53:01.286Z,99.90
2019-06-01T01:55:27.816Z,99.90
2019-06-01T01:57:55.393Z,99.90
2019-06-01T02:00:44.601Z,99.90
2019-06-01T02:03:11.870Z,99.90
2019-06-01T02:05:38.504Z,99.90
2019-06-01T02:08:05.792Z,99.90
2019-06-01T02:10:32.779Z,99.90
2019-06-01T02:12:59.653Z,99.90
2019-06-01T02:15:26.479Z,99.90
2019-06-01T02:17:53.924Z,99.90
2019-06-01T02:20:20.666Z,99.90
2019-06-01T02:22:47.235Z,99.90
2019-06-01T02:25:13.986Z,99.90
2019-06-01T02:27:40.535Z,99.90
2019-06-01T02:30:07.381Z,99.90
2019-06-01T02:32:33.955Z,99.90
2019-06-01T02:35:02.376Z,99.90
2019-06-01T02:37:28.912Z,99.90
2019-06-01T02:39:56.757Z,99.90
2019-06-01T02:42:23.395Z,99.90
2019-06-01T02:44:49.934Z,99.90
2019-06-01T02:47:16.505Z,99.90
2019-06-01T02:49:43.136Z,99.90
2019-06-01T02:52:09.694Z,99.90
2019-06-01T02:54:36.257Z,99.90
2019-06-01T02:57:03.069Z,99.90
2019-06-01T02:59:30.631Z,99.90
2019-06-01T03:02:03.364Z,99.90
2019-06-01T03:04:25.845Z,99.90
2019-06-01T03:06:53.285Z,99.90
2019-06-01T03:09:22.040Z,99.90
2019-06-01T03:11:50.339Z,99.90
2019-06-01T03:14:18.612Z,99.90
2019-06-01T03:16:48.977Z,99.90
2019-06-01T03:19:17.901Z,99.90
2019-06-01T03:21:47.858Z,99.90
2019-06-01T03:24:14.422Z,99.90
2019-06-01T03:26:43.492Z,99.90
2019-06-01T03:29:16.201Z,99.90
2019-06-01T03:31:43.609Z,99.90
2019-06-01T03:34:11.446Z,99.90
2019-06-01T03:36:38.520Z,99.90
2019-06-01T03:39:06.067Z,99.90
2019-06-01T03:41:33.087Z,99.90
2019-06-01T03:44:00.452Z,99.90
2019-06-01T03:46:28.076Z,99.90
2019-06-01T03:48:54.633Z,99.90
2019-06-01T03:51:21.202Z,99.90
2019-06-01T03:53:47.747Z,99.90
2019-06-01T03:56:14.307Z,99.90
2019-06-01T03:58:40.870Z,99.90
2019-06-01T04:01:07.435Z,99.90
2019-06-01T04:03:34.000Z,99.90
2019-06-01T04:06:01.195Z,99.90
2019-06-01T04:08:29.100Z,99.90
2019-06-01T04:10:55.642Z,99.90
2019-06-01T04:13:22.191Z,99.90
2019-06-01T04:15:48.975Z,99.90
2019-06-01T04:18:15.531Z,99.90
2019-06-01T04:20:42.091Z,99.90
2019-06-01T04:23:08.739Z,99.90
2019-06-01T04:25:35.302Z,99.90
2019-06-01T04:28:02.235Z,99.90
2019-06-01T04:30:29.832Z,99.90
2019-06-01T04:32:56.392Z,99.90
2019-06-01T04:35:23.068Z,99.90
2019-06-01T04:37:49.686Z,99.90
2019-06-01T04:40:16.243Z,99.90
2019-06-01T04:42:43.394Z,99.90
2019-06-01T04:45:10.871Z,99.90
2019-06-01T04:47:38.548Z,99.90
2019-06-01T04:50:06.705Z,99.90
2019-06-01T04:52:33.339Z,99.90
2019-06-01T04:54:59.990Z,99.90
2019-06-01T04:57:26.531Z,99.90
2019-06-01T04:59:53.108Z,99.90
2019-06-01T05:02:19.658Z,99.90
2019-06-01T05:04:46.316Z,99.90
2019-06-01T05:07:13.450Z,99.90
2019-06-01T05:09:40.114Z,99.90
2019-06-01T05:12:07.479Z,99.90
2019-06-01T05:14:34.534Z,99.90
2019-06-01T05:17:01.571Z,99.90
2019-06-01T05:19:28.267Z,99.90
2019-06-01T05:21:54.789Z,99.90
2019-06-01T05:24:21.340Z,99.90
2019-06-01T05:26:47.889Z,99.90
2019-06-01T05:29:15.647Z,99.90
2019-06-01T05:31:42.490Z,99.90
2019-06-01T05:34:09.694Z,99.90
2019-06-01T05:36:36.415Z,99.90
2019-06-01T05:39:05.698Z,99.90
2019-06-01T05:41:32.759Z,99.90
2019-06-01T05:44:00.628Z,99.90
2019-06-01T05:46:28.405Z,99.90
2019-06-01T05:48:55.006Z,99.90
2019-06-01T05:51:22.974Z,99.90
2019-06-01T05:53:49.643Z,99.90
2019-06-01T05:56:16.859Z,99.90
2019-06-01T05:58:43.626Z,99.90
2019-06-01T06:01:10.398Z,99.90
2019-06-01T06:03:40.397Z,99.90
2019-06-01T06:06:05.367Z,99.90
2019-06-01T06:08:31.949Z,99.90
2019-06-01T06:10:58.547Z,99.90
2019-06-01T06:13:25.226Z,99.90
2019-06-01T06:15:51.807Z,99.90
2019-06-01T06:18:18.510Z,99.90
2019-06-01T06:20:45.065Z,99.90
2019-06-01T06:23:12.242Z,99.90
2019-06-01T06:25:41.056Z,99.90
2019-06-01T06:28:07.281Z,99.90
2019-06-01T06:30:33.843Z,99.90
2019-06-01T06:33:00.489Z,99.90
2019-06-01T06:35:27.031Z,99.90
2019-06-01T06:37:53.703Z,99.90
2019-06-01T06:40:22.146Z,99.90
2019-06-01T06:42:48.827Z,99.90
2019-06-01T06:45:16.580Z,99.90
2019-06-01T06:47:43.259Z,99.90
2019-06-01T06:50:14.900Z,99.90
2019-06-01T06:52:42.007Z,99.90
2019-06-01T06:55:08.675Z,99.90
2019-06-01T06:57:35.224Z,99.90
2019-06-01T07:00:04.261Z,99.90
2019-06-01T07:02:30.910Z,99.90
2019-06-01T07:04:57.439Z,99.90
2019-06-01T07:07:24.004Z,99.90
2019-06-01T07:09:50.586Z,99.90
2019-06-01T07:12:17.138Z,99.90
2019-06-01T07:14:43.709Z,99.90
2019-06-01T07:17:10.295Z,99.90
2019-06-01T07:19:36.831Z,99.90
2019-06-01T07:22:03.490Z,99.90
2019-06-01T07:24:30.035Z,99.90
2019-06-01T07:26:56.643Z,99.90
2019-06-01T07:29:24.193Z,99.90
2019-06-01T07:31:50.979Z,99.90
2019-06-01T07:34:30.944Z,99.90
2019-06-01T07:36:45.898Z,99.90
2019-06-01T07:39:12.417Z,99.90
2019-06-01T07:41:39.006Z,99.90
2019-06-01T07:44:05.652Z,99.90
2019-06-01T07:46:33.249Z,99.90
2019-06-01T07:48:59.969Z,99.90
2019-06-01T07:51:27.417Z,99.90
2019-06-01T07:53:54.501Z,99.90
2019-06-01T07:56:22.498Z,99.90
2019-06-01T07:58:49.458Z,99.90
2019-06-01T08:01:16.021Z,99.90
2019-06-01T08:03:42.578Z,99.90
2019-06-01T08:06:09.105Z,99.90
2019-06-01T08:08:35.683Z,99.90
2019-06-01T08:11:02.326Z,99.90
2019-06-01T08:13:33.136Z,99.90
2019-06-01T08:15:57.250Z,99.90
2019-06-01T08:18:24.306Z,99.90
2019-06-01T08:20:50.851Z,99.90
2019-06-01T08:23:17.426Z,99.90
2019-06-01T08:25:44.090Z,99.90
2019-06-01T08:28:10.600Z,99.90
2019-06-01T08:30:37.198Z,99.90
2019-06-01T08:33:03.834Z,99.90
2019-06-01T08:35:31.177Z,99.90
2019-06-01T08:37:57.945Z,99.90
2019-06-01T08:40:25.238Z,99.90
2019-06-01T08:42:52.137Z,99.90
2019-06-01T08:45:18.903Z,99.90
2019-06-01T08:47:53.154Z,99.90
2019-06-01T08:50:19.842Z,99.90
2019-06-01T08:52:47.215Z,99.90
2019-06-01T08:55:13.957Z,99.90
2019-06-01T08:57:40.612Z,99.90
2019-06-01T09:00:07.845Z,99.90
2019-06-01T09:02:34.948Z,99.90
2019-06-01T09:05:04.382Z,99.90
2019-06-01T09:07:31.104Z,99.90
2019-06-01T09:09:57.827Z,99.90
2019-06-01T09:12:25.115Z,99.90
2019-06-01T09:14:52.605Z,99.90
2019-06-01T09:17:19.181Z,99.90
2019-06-01T09:19:46.096Z,99.90
2019-06-01T09:22:12.654Z,99.90
2019-06-01T09:24:39.318Z,99.90
2019-06-01T09:27:05.902Z,99.90
2019-06-01T09:29:32.423Z,99.90
2019-06-01T09:31:58.954Z,99.90
2019-06-01T09:34:26.165Z,99.90
2019-06-01T09:36:55.481Z,99.90
2019-06-01T09:39:21.327Z,99.90
2019-06-01T09:41:47.994Z,99.90
2019-06-01T09:44:14.539Z,99.90
2019-06-01T09:46:41.103Z,99.90
2019-06-01T09:49:07.695Z,99.90
2019-06-01T09:51:35.474Z,99.90
2019-06-01T09:54:02.808Z,99.90
2019-06-01T09:56:31.728Z,99.90
2019-06-01T09:58:58.781Z,99.90
2019-06-01T10:01:25.452Z,99.90
2019-06-01T10:03:52.115Z,99.30
2019-06-01T10:06:18.721Z,99.90
2019-06-01T10:08:45.260Z,98.60
2019-06-01T10:11:11.873Z,99.90
2019-06-01T10:13:38.520Z,99.90
2019-06-01T10:16:06.358Z,99.90
2019-06-01T10:18:32.953Z,99.90
2019-06-01T10:20:59.487Z,99.90
2019-06-01T10:23:26.038Z,99.90
2019-06-01T10:25:53.119Z,99.90
2019-06-01T10:28:19.663Z,97.00
2019-06-01T10:30:46.323Z,99.90
2019-06-01T10:33:13.096Z,97.60
2019-06-01T10:35:39.651Z,95.40
2019-06-01T10:38:06.330Z,99.40
2019-06-01T10:40:33.407Z,99.70
2019-06-01T10:43:00.314Z,92.80
2019-06-01T10:45:27.016Z,94.60
2019-06-01T10:47:53.593Z,99.50
2019-06-01T10:50:20.100Z,96.20
2019-06-01T10:52:46.652Z,94.90
2019-06-01T10:55:13.534Z,97.00
2019-06-01T10:57:40.610Z,95.80
2019-06-01T11:00:09.488Z,96.70
2019-06-01T11:02:36.632Z,99.90
2019-06-01T11:05:06.718Z,99.40
2019-06-01T11:07:33.275Z,95.10
2019-06-01T11:09:59.844Z,96.40
2019-06-01T11:12:26.378Z,94.80
2019-06-01T11:14:52.932Z,99.90
2019-06-01T11:17:19.498Z,96.20
2019-06-01T11:19:46.137Z,92.10
2019-06-01T11:22:12.677Z,90.80
2019-06-01T11:24:39.530Z,93.50
2019-06-01T11:27:06.282Z,89.80
2019-06-01T11:29:34.654Z,93.10
2019-06-01T11:32:01.176Z,97.00
2019-06-01T11:34:27.706Z,95.20
2019-06-01T11:37:05.059Z,92.30
2019-06-01T11:39:22.795Z,93.50
2019-06-01T11:41:49.355Z,82.10
2019-06-01T11:44:15.913Z,81.30
2019-06-01T11:46:42.994Z,83.00
2019-06-01T11:49:09.609Z,84.90
2019-06-01T11:51:36.963Z,88.30
2019-06-01T11:54:04.840Z,88.60
2019-06-01T11:56:31.415Z,75.90
2019-06-01T11:58:57.987Z,80.60
2019-06-01T12:01:24.546Z,79.10
2019-06-01T12:03:51.225Z,80.20
2019-06-01T12:06:17.903Z,83.70
2019-06-01T12:08:44.544Z,75.70
2019-06-01T12:11:11.082Z,89.20
2019-06-01T12:13:38.118Z,90.40
2019-06-01T12:16:04.838Z,78.80
2019-06-01T12:18:31.401Z,93.20
2019-06-01T12:20:58.052Z,90.50
2019-06-01T12:23:24.816Z,92.60
2019-06-01T12:25:51.372Z,91.00
2019-06-01T12:28:17.945Z,89.50
2019-06-01T12:30:45.731Z,95.70
2019-06-01T12:33:12.751Z,92.90
2019-06-01T12:35:39.874Z,82.90
2019-06-01T12:38:07.223Z,82.20
2019-06-01T12:40:33.863Z,89.50
2019-06-01T12:43:00.410Z,84.70
2019-06-01T12:45:27.096Z,89.10
2019-06-01T12:47:58.122Z,83.40
2019-06-01T12:50:22.542Z,82.90
2019-06-01T12:52:49.320Z,90.20
2019-06-01T12:55:15.926Z,70.10
2019-06-01T12:57:42.941Z,78.20
2019-06-01T13:00:10.221Z,70.00
2019-06-01T13:02:36.778Z,72.80
2019-06-01T13:05:06.549Z,69.00
2019-06-01T13:07:33.316Z,68.60
2019-06-01T13:09:59.920Z,75.50
2019-06-01T13:12:26.555Z,72.50
2019-06-01T13:14:53.146Z,83.30
2019-06-01T13:17:19.719Z,68.60
2019-06-01T13:19:47.355Z,68.40
2019-06-01T13:22:14.226Z,65.90
2019-06-01T13:24:41.531Z,70.80
2019-06-01T13:27:08.410Z,70.10
2019-06-01T13:29:34.973Z,77.40
2019-06-01T13:32:01.529Z,67.70
2019-06-01T13:34:28.078Z,56.80
2019-06-01T13:36:56.050Z,58.00
2019-06-01T13:39:22.588Z,60.10
2019-06-01T13:41:49.582Z,62.70
2019-06-01T13:44:16.200Z,55.90
2019-06-01T13:46:43.460Z,57.70
2019-06-01T13:49:10.176Z,59.40
2019-06-01T13:51:36.725Z,57.80
2019-06-01T13:54:03.486Z,57.20
2019-06-01T13:56:30.064Z,59.40
2019-06-01T13:58:56.666Z,55.60
2019-06-01T14:01:23.363Z,52.80
2019-06-01T14:03:52.057Z,57.30
2019-06-01T14:06:18.475Z,56.20
2019-06-01T14:08:45.069Z,55.10
2019-06-01T14:11:11.656Z,60.50
2019-06-01T14:13:38.202Z,53.80
2019-06-01T14:16:04.771Z,54.40
2019-06-01T14:18:31.402Z,58.50
2019-06-01T14:20:58.195Z,55.40
2019-06-01T14:23:24.729Z,56.10
2019-06-01T14:25:52.187Z,55.40
2019-06-01T14:28:19.141Z,57.80
2019-06-01T14:30:46.177Z,59.20
2019-06-01T14:33:12.850Z,73.60
2019-06-01T14:35:39.417Z,84.50
2019-06-01T14:38:05.973Z,81.00
2019-06-01T14:40:32.529Z,76.80
2019-06-01T14:42:59.285Z,73.30
2019-06-01T14:45:26.042Z,78.30
2019-06-01T14:47:53.491Z,77.50
2019-06-01T14:50:20.197Z,79.00
2019-06-01T14:52:47.650Z,68.70
2019-06-01T14:55:14.602Z,71.20
2019-06-01T14:57:41.171Z,66.30
2019-06-01T15:00:09.551Z,60.90
2019-06-01T15:02:36.324Z,54.70
2019-06-01T15:05:06.099Z,51.40
2019-06-01T15:07:32.654Z,55.10
2019-06-01T15:09:59.220Z,50.10
2019-06-01T15:12:25.810Z,50.70
2019-06-01T15:14:52.975Z,50.60
2019-06-01T15:17:19.856Z,48.50
2019-06-01T15:19:46.428Z,53.20
2019-06-01T15:22:12.981Z,54.70
2019-06-01T15:24:39.615Z,59.20
2019-06-01T15:27:06.178Z,63.80
2019-06-01T15:29:32.759Z,63.30
2019-06-01T15:32:00.136Z,73.90
2019-06-01T15:34:26.972Z,69.10
2019-06-01T15:36:53.685Z,68.50
2019-06-01T15:39:24.710Z,71.40
2019-06-01T15:41:48.836Z,76.40
2019-06-01T15:44:15.408Z,80.60
2019-06-01T15:46:41.976Z,80.20
2019-06-01T15:49:09.082Z,83.30
2019-06-01T15:51:35.658Z,87.20
2019-06-01T15:54:03.229Z,88.10
2019-06-01T15:56:30.016Z,87.20
2019-06-01T15:58:58.152Z,85.60
2019-06-01T16:01:24.898Z,83.70
2019-06-01T16:03:53.194Z,80.80
2019-06-01T16:06:19.810Z,80.40
2019-06-01T16:08:47.167Z,82.90
2019-06-01T16:11:14.831Z,84.30
2019-06-01T16:13:41.486Z,90.30
2019-06-01T16:16:08.071Z,90.80
2019-06-01T16:18:34.701Z,89.10
2019-06-01T16:21:02.272Z,86.60
2019-06-01T16:23:29.065Z,89.90
2019-06-01T16:26:07.259Z,88.70
2019-06-01T16:28:24.012Z,88.00
2019-06-01T16:30:50.589Z,86.10
2019-06-01T16:33:17.387Z,89.00
2019-06-01T16:35:44.064Z,90.10
2019-06-01T16:38:10.709Z,90.10
2019-06-01T16:40:37.401Z,82.10
2019-06-01T16:43:05.727Z,85.70
2019-06-01T16:45:33.988Z,82.70
2019-06-01T16:48:01.633Z,79.90
2019-06-01T16:50:28.431Z,81.40
2019-06-01T16:52:55.873Z,81.70
2019-06-01T16:55:22.657Z,84.00
2019-06-01T16:57:49.323Z,85.40
2019-06-01T17:00:16.435Z,84.50
2019-06-01T17:02:43.221Z,85.40
2019-06-01T17:05:11.091Z,84.80
2019-06-01T17:07:39.979Z,81.30
2019-06-01T17:10:23.919Z,87.30
2019-06-01T17:12:36.974Z,91.20
2019-06-01T17:15:07.127Z,92.40
2019-06-01T17:17:34.184Z,94.00
2019-06-01T17:20:05.302Z,94.90
2019-06-01T17:22:34.353Z,95.60
2019-06-01T17:25:01.827Z,96.00
2019-06-01T17:27:28.937Z,97.10
2019-06-01T17:29:58.087Z,96.50
2019-06-01T17:32:26.769Z,97.30
2019-06-01T17:34:54.567Z,98.70
2019-06-01T17:37:21.248Z,99.90
2019-06-01T17:39:49.112Z,99.90
2019-06-01T17:42:17.305Z,99.90
2019-06-01T17:44:46.048Z,99.90
2019-06-01T17:47:12.626Z,99.90
2019-06-01T17:49:39.341Z,99.90
2019-06-01T17:52:06.126Z,99.90
2019-06-01T17:54:32.769Z,99.90
2019-06-01T17:56:59.331Z,99.90
2019-06-01T17:59:26.098Z,99.90
2019-06-01T18:01:52.743Z,99.90
2019-06-01T18:04:19.468Z,99.90
2019-06-01T18:06:47.350Z,99.90
2019-06-01T18:09:14.144Z,99.90
2019-06-01T18:11:41.290Z,99.90
2019-06-01T18:14:10.247Z,99.90
2019-06-01T18:16:37.186Z,99.90
2019-06-01T18:19:04.166Z,99.90
2019-06-01T18:21:33.425Z,99.90
2019-06-01T18:24:12.811Z,99.90
2019-06-01T18:26:39.669Z,99.90
2019-06-01T18:29:06.620Z,99.90
2019-06-01T18:31:33.245Z,99.90
2019-06-01T18:34:00.128Z,99.90
2019-06-01T18:36:26.710Z,99.90
2019-06-01T18:38:53.265Z,99.90
2019-06-01T18:41:20.297Z,99.90
2019-06-01T18:43:47.150Z,99.90
2019-06-01T18:46:14.423Z,99.90
2019-06-01T18:48:45.940Z,99.90
2019-06-01T18:51:14.789Z,99.90
2019-06-01T18:53:41.695Z,99.90
2019-06-01T18:56:10.165Z,99.90
2019-06-01T18:58:37.127Z,99.90
2019-06-01T19:01:04.753Z,99.90
2019-06-01T19:03:31.423Z,99.90
2019-06-01T19:06:21.956Z,99.90
2019-06-01T19:08:52.433Z,99.90
2019-06-01T19:11:34.731Z,99.90
2019-06-01T19:33:42.512Z,99.90
2019-06-01T19:36:21.580Z,99.90
2019-06-01T19:38:49.856Z,99.90
2019-06-01T19:50:34.677Z,99.90
2019-06-01T19:53:01.803Z,99.90
2019-06-01T19:55:28.816Z,99.90
2019-06-01T19:57:55.678Z,99.90
2019-06-01T20:00:22.507Z,99.90
2019-06-01T20:02:49.419Z,99.90
2019-06-01T20:05:16.690Z,99.90
2019-06-01T20:07:43.534Z,99.90
2019-06-01T20:10:12.341Z,99.90
2019-06-01T20:12:44.428Z,99.90
2019-06-01T20:15:17.457Z,99.90
2019-06-01T20:17:45.498Z,99.90
2019-06-01T20:20:12.738Z,99.90
2019-06-01T20:25:31.600Z,99.90
2019-06-01T20:28:05.169Z,99.90
2019-06-01T20:57:43.931Z,99.90
2019-06-01T21:00:19.925Z,99.90
2019-06-01T21:02:47.673Z,99.90
2019-06-01T21:05:19.870Z,99.90
2019-06-01T21:07:48.843Z,99.90
2019-06-01T21:10:20.455Z,99.90
2019-06-01T21:12:50.711Z,99.90
2019-06-01T21:15:17.634Z,99.90
2019-06-01T21:17:51.443Z,99.90
2019-06-01T21:20:28.492Z,99.90
2019-06-01T21:22:52.077Z,99.90
2019-06-01T21:25:20.935Z,99.90
2019-06-01T21:27:48.327Z,99.90
2019-06-01T21:30:18.780Z,99.90
2019-06-01T21:32:46.522Z,99.90
2019-06-01T21:35:15.138Z,99.90
2019-06-01T21:37:42.681Z,99.90
2019-06-01T21:40:26.437Z,99.90
2019-06-01T21:43:06.834Z,99.90
2019-06-01T21:45:24.266Z,99.90
2019-06-01T21:47:52.457Z,99.90
2019-06-01T21:50:22.124Z,99.90
2019-06-01T21:52:50.129Z,99.90
2019-06-01T21:55:20.624Z,99.90
2019-06-01T21:57:52.610Z,99.90
2019-06-01T22:00:46.344Z,99.90
2019-06-01T22:09:21.822Z,99.90
2019-06-01T22:11:54.496Z,99.90
2019-06-01T22:14:26.029Z,99.90
2019-06-01T22:16:57.690Z,99.90
2019-06-01T22:19:38.767Z,99.90
2019-06-01T22:24:54.759Z,99.90
2019-06-01T22:33:57.312Z,99.90
2019-06-01T22:36:25.334Z,99.90
2019-06-01T22:38:58.837Z,99.90
2019-06-01T22:41:26.282Z,99.90
2019-06-01T22:43:55.496Z,99.90
2019-06-01T22:46:22.728Z,99.90
2019-06-01T22:48:50.088Z,99.90
2019-06-01T22:51:16.687Z,99.90
2019-06-01T22:53:44.623Z,99.90
2019-06-01T22:56:12.043Z,99.90
2019-06-01T22:58:39.103Z,99.90
2019-06-01T23:01:06.211Z,99.90
2019-06-01T23:03:34.462Z,99.90
2019-06-01T23:06:04.009Z,99.90
2019-06-01T23:08:31.958Z,99.90
2019-06-01T23:10:58.861Z,99.90
2019-06-01T23:13:26.210Z,99.90
2019-06-01T23:15:53.176Z,99.90
2019-06-01T23:18:19.954Z,99.90
2019-06-01T23:20:46.753Z,99.90
2019-06-01T23:23:13.555Z,99.90
2019-06-01T23:25:40.420Z,99.90
2019-06-01T23:28:07.180Z,99.90
2019-06-01T23:30:34.106Z,99.90
2019-06-01T23:33:00.837Z,99.90
2019-06-01T23:35:28.524Z,99.90
2019-06-01T23:37:55.150Z,99.90
2019-06-01T23:40:22.442Z,99.90
2019-06-01T23:42:49.269Z,99.90
2019-06-01T23:45:32.980Z,99.90
2019-06-01T23:47:59.817Z,99.90
2019-06-01T23:50:27.167Z,99.90
2019-06-01T23:52:54.071Z,99.90
2019-06-01T23:55:20.720Z,99.90
2019-06-01T23:57:48.036Z,99.90
